createdAt,value
2017-11-08T00:01:47.563Z,16.13
2017-11-08T00:04:19.148Z,15.70
2017-11-08T00:06:47.368Z,16.77
2017-11-08T00:09:15.080Z,17.13
2017-11-08T00:11:42.587Z,19.30
2017-11-08T00:14:10.052Z,15.90
2017-11-08T00:16:37.671Z,17.00
2017-11-08T00:19:05.180Z,21.13
2017-11-08T00:21:32.614Z,16.00
2017-11-08T00:24:00.087Z,13.93
2017-11-08T00:26:27.628Z,18.57
2017-11-08T00:28:55.060Z,17.90
2017-11-08T00:31:22.482Z,17.70
2017-11-08T00:33:49.911Z,18.23
2017-11-08T00:36:17.461Z,14.05
2017-11-08T00:38:44.913Z,19.27
2017-11-08T00:41:12.369Z,15.77
2017-11-08T00:43:39.796Z,16.60
2017-11-08T00:46:07.231Z,18.23
2017-11-08T00:48:34.752Z,15.83
2017-11-08T00:51:02.504Z,18.93
2017-11-08T00:53:29.959Z,17.63
2017-11-08T00:55:57.392Z,18.93
2017-11-08T00:58:24.876Z,20.67
2017-11-08T01:00:57.983Z,18.07
2017-11-08T01:03:25.492Z,21.00
2017-11-08T01:05:53.080Z,17.57
2017-11-08T01:08:20.500Z,18.20
2017-11-08T01:10:47.967Z,20.03
2017-11-08T01:13:15.393Z,15.90
2017-11-08T01:15:42.824Z,20.83
2017-11-08T01:18:10.261Z,15.67
2017-11-08T01:20:37.814Z,18.17
2017-11-08T01:23:05.247Z,18.20
2017-11-08T01:25:32.664Z,17.57
2017-11-08T01:28:00.183Z,20.17
2017-11-08T01:30:28.323Z,17.70
2017-11-08T01:32:56.016Z,17.27
2017-11-08T01:35:23.472Z,18.37
2017-11-08T01:37:55.336Z,17.03
2017-11-08T01:40:22.764Z,16.50
2017-11-08T01:42:50.196Z,19.97
2017-11-08T01:45:17.909Z,17.87
2017-11-08T01:47:45.344Z,22.70
2017-11-08T01:50:12.769Z,18.20
2017-11-08T01:52:40.209Z,19.70
2017-11-08T01:55:07.644Z,19.43
2017-11-08T01:57:35.061Z,21.00
2017-11-08T02:00:02.502Z,23.07
2017-11-08T02:02:30.721Z,18.60
2017-11-08T02:04:58.156Z,20.80
2017-11-08T02:07:25.575Z,16.00
2017-11-08T02:09:53.012Z,18.13
2017-11-08T02:12:20.543Z,17.57
2017-11-08T02:14:47.984Z,20.17
2017-11-08T02:17:15.412Z,16.77
2017-11-08T02:19:43.832Z,22.40
2017-11-08T02:22:11.256Z,19.97
2017-11-08T02:24:38.744Z,18.57
2017-11-08T02:27:06.137Z,19.57
2017-11-08T02:29:33.588Z,16.70
2017-11-08T02:32:01.020Z,17.30
2017-11-08T02:34:28.573Z,19.17
2017-11-08T02:36:56.033Z,20.75
2017-11-08T02:39:23.488Z,16.80
2017-11-08T02:41:51.153Z,20.07
2017-11-08T02:44:18.644Z,20.77
2017-11-08T02:46:46.163Z,19.63
2017-11-08T02:49:13.621Z,20.52
2017-11-08T02:51:41.104Z,22.10
2017-11-08T02:54:08.501Z,19.77
2017-11-08T02:56:35.935Z,20.57
2017-11-08T02:59:03.360Z,19.97
2017-11-08T03:01:30.793Z,19.27
2017-11-08T03:03:58.216Z,22.60
2017-11-08T03:06:25.676Z,20.70
2017-11-08T03:08:53.856Z,20.30
2017-11-08T03:11:21.280Z,24.30
2017-11-08T03:13:48.724Z,17.87
2017-11-08T03:16:16.161Z,20.80
2017-11-08T03:18:43.588Z,21.63
2017-11-08T03:21:11.008Z,21.87
2017-11-08T03:23:39.208Z,23.57
2017-11-08T03:26:06.696Z,19.93
2017-11-08T03:28:34.141Z,19.70
2017-11-08T03:31:01.573Z,22.80
2017-11-08T03:33:29.064Z,23.87
2017-11-08T03:35:56.693Z,20.67
2017-11-08T03:38:24.243Z,18.83
2017-11-08T03:40:51.668Z,19.20
2017-11-08T03:43:19.191Z,23.47
2017-11-08T03:45:46.624Z,21.70
2017-11-08T03:48:14.044Z,24.07
2017-11-08T03:50:41.556Z,20.23
2017-11-08T03:53:09.013Z,21.90
2017-11-08T03:55:36.444Z,23.80
2017-11-08T03:58:03.859Z,18.67
2017-11-08T04:00:31.300Z,20.23
2017-11-08T04:02:58.740Z,20.90
2017-11-08T04:05:26.214Z,20.40
2017-11-08T04:07:53.668Z,20.40
2017-11-08T04:10:21.125Z,23.67
2017-11-08T04:12:48.568Z,19.50
2017-11-08T04:15:16.055Z,22.73
2017-11-08T04:17:43.480Z,21.50
2017-11-08T04:20:11.037Z,25.00
2017-11-08T04:22:38.468Z,23.10
2017-11-08T04:25:05.897Z,23.70
2017-11-08T04:27:33.354Z,19.57
2017-11-08T04:30:00.776Z,24.20
2017-11-08T04:32:28.310Z,22.60
2017-11-08T04:34:55.732Z,24.73
2017-11-08T04:37:23.159Z,23.60
2017-11-08T04:39:50.688Z,20.83
2017-11-08T04:42:18.142Z,23.83
2017-11-08T04:44:45.566Z,22.70
2017-11-08T04:47:13.052Z,21.63
2017-11-08T04:49:40.517Z,25.97
2017-11-08T04:52:08.275Z,29.80
2017-11-08T04:54:35.696Z,20.13
2017-11-08T04:57:03.119Z,25.97
2017-11-08T04:59:30.561Z,27.93
2017-11-08T05:01:58.002Z,25.47
2017-11-08T05:04:25.536Z,23.83
2017-11-08T05:06:52.965Z,23.63
2017-11-08T05:09:20.400Z,22.53
2017-11-08T05:11:47.889Z,22.93
2017-11-08T05:14:15.376Z,24.30
2017-11-08T05:16:42.808Z,23.90
2017-11-08T05:19:10.253Z,23.48
2017-11-08T05:21:37.751Z,23.50
2017-11-08T05:24:05.207Z,22.65
2017-11-08T05:26:32.660Z,22.67
2017-11-08T05:29:00.092Z,24.93
2017-11-08T05:31:27.516Z,24.00
2017-11-08T05:33:54.977Z,24.30
2017-11-08T05:36:22.404Z,21.53
2017-11-08T05:38:49.856Z,24.37
2017-11-08T05:41:17.267Z,27.23
2017-11-08T05:43:44.693Z,24.20
2017-11-08T05:46:12.133Z,24.33
2017-11-08T05:48:39.586Z,22.60
2017-11-08T05:51:07.036Z,22.57
2017-11-08T05:53:34.460Z,28.33
2017-11-08T05:56:01.889Z,24.40
2017-11-08T05:58:29.320Z,21.73
2017-11-08T06:00:56.743Z,26.50
2017-11-08T06:03:24.176Z,26.13
2017-11-08T06:05:51.596Z,27.70
2017-11-08T06:08:19.032Z,24.83
2017-11-08T06:10:46.449Z,23.17
2017-11-08T06:13:13.964Z,23.93
2017-11-08T06:15:42.166Z,23.07
2017-11-08T06:18:09.593Z,27.43
2017-11-08T06:20:37.017Z,24.37
2017-11-08T06:23:04.448Z,24.77
2017-11-08T06:25:31.880Z,22.90
2017-11-08T06:27:59.317Z,29.73
2017-11-08T06:30:26.748Z,25.30
2017-11-08T06:32:54.179Z,24.83
2017-11-08T06:35:21.634Z,30.20
2017-11-08T06:37:49.056Z,26.93
2017-11-08T06:40:17.573Z,26.67
2017-11-08T06:42:45.224Z,27.60
2017-11-08T06:45:12.668Z,24.75
2017-11-08T06:47:40.080Z,28.43
2017-11-08T06:50:07.515Z,28.17
2017-11-08T06:52:38.716Z,35.00
2017-11-08T06:55:06.309Z,27.20
2017-11-08T06:57:33.727Z,28.13
2017-11-08T07:00:01.164Z,25.60
2017-11-08T07:02:28.586Z,26.87
2017-11-08T07:04:56.033Z,29.70
2017-11-08T07:07:23.452Z,24.30
2017-11-08T07:09:50.880Z,27.37
2017-11-08T07:12:18.320Z,27.80
2017-11-08T07:14:45.740Z,27.20
2017-11-08T07:17:13.176Z,29.70
2017-11-08T07:19:41.360Z,30.80
2017-11-08T07:22:08.796Z,27.03
2017-11-08T07:24:36.983Z,29.77
2017-11-08T07:27:04.416Z,26.57
2017-11-08T07:29:31.848Z,26.57
2017-11-08T07:31:59.283Z,29.20
2017-11-08T07:34:26.712Z,26.58
2017-11-08T07:36:54.139Z,29.33
2017-11-08T07:39:22.320Z,25.80
2017-11-08T07:41:49.759Z,27.02
2017-11-08T07:44:17.184Z,30.27
2017-11-08T07:46:44.616Z,26.30
2017-11-08T07:49:12.044Z,25.70
2017-11-08T07:51:40.252Z,29.13
2017-11-08T07:54:11.628Z,26.07
2017-11-08T07:56:39.056Z,25.17
2017-11-08T07:59:06.489Z,28.00
2017-11-08T08:01:33.911Z,28.37
2017-11-08T08:04:01.340Z,29.83
2017-11-08T08:06:28.763Z,24.37
2017-11-08T08:08:56.197Z,27.20
2017-11-08T08:11:24.384Z,28.97
2017-11-08T08:13:51.884Z,28.17
2017-11-08T08:16:19.308Z,33.80
2017-11-08T08:18:46.740Z,28.13
2017-11-08T08:21:15.835Z,27.47
2017-11-08T08:23:43.273Z,28.93
2017-11-08T08:26:10.692Z,26.57
2017-11-08T08:28:38.137Z,24.30
2017-11-08T08:31:05.564Z,28.57
2017-11-08T08:33:33.757Z,31.17
2017-11-08T08:36:01.180Z,28.33
2017-11-08T08:38:28.636Z,27.37
2017-11-08T08:40:56.070Z,29.50
2017-11-08T08:43:23.493Z,27.93
2017-11-08T08:45:50.929Z,31.43
2017-11-08T08:48:18.352Z,23.93
2017-11-08T08:50:48.588Z,28.23
2017-11-08T08:53:16.779Z,26.07
2017-11-08T08:55:44.200Z,27.27
2017-11-08T08:58:11.620Z,25.80
2017-11-08T09:00:39.056Z,33.20
2017-11-08T09:03:06.479Z,28.13
2017-11-08T09:05:34.684Z,27.00
2017-11-08T09:08:02.109Z,28.23
2017-11-08T09:10:29.523Z,31.40
2017-11-08T09:12:57.079Z,31.50
2017-11-08T09:15:24.496Z,29.73
2017-11-08T09:17:51.932Z,31.10
2017-11-08T09:20:25.956Z,32.77
2017-11-08T09:22:54.310Z,25.50
2017-11-08T09:25:21.728Z,32.33
2017-11-08T09:27:51.023Z,28.30
2017-11-08T09:30:18.443Z,33.83
2017-11-08T09:32:45.887Z,27.93
2017-11-08T09:35:13.388Z,26.77
2017-11-08T09:37:46.523Z,25.67
2017-11-08T09:40:13.961Z,28.40
2017-11-08T09:42:41.593Z,34.00
2017-11-08T09:45:11.919Z,29.83
2017-11-08T09:47:39.504Z,26.23
2017-11-08T09:50:07.040Z,27.40
2017-11-08T09:52:35.524Z,21.43
2017-11-08T09:55:03.052Z,29.00
2017-11-08T09:57:30.509Z,28.00
2017-11-08T09:59:58.092Z,30.57
2017-11-08T10:02:25.521Z,22.83
2017-11-08T10:04:52.956Z,25.60
2017-11-08T10:07:20.484Z,24.10
2017-11-08T10:09:51.756Z,25.20
2017-11-08T10:12:19.412Z,22.80
2017-11-08T10:14:47.019Z,26.37
2017-11-08T10:17:14.588Z,23.87
2017-11-08T10:19:42.024Z,24.80
2017-11-08T10:22:09.441Z,24.90
2017-11-08T10:24:36.871Z,26.10
2017-11-08T10:27:04.292Z,22.97
2017-11-08T10:29:31.873Z,24.60
2017-11-08T10:31:59.328Z,21.73
2017-11-08T10:34:26.760Z,24.90
2017-11-08T10:36:54.233Z,22.57
2017-11-08T10:39:21.690Z,23.97
2017-11-08T10:41:49.125Z,23.53
2017-11-08T10:44:16.513Z,25.60
2017-11-08T10:46:43.937Z,22.50
2017-11-08T10:49:17.101Z,24.27
2017-11-08T10:51:44.781Z,20.80
2017-11-08T10:54:12.238Z,23.80
2017-11-08T10:56:39.688Z,20.53
2017-11-08T10:59:12.817Z,22.57
2017-11-08T11:01:40.253Z,22.60
2017-11-08T11:04:07.893Z,26.47
2017-11-08T11:06:35.353Z,24.00
2017-11-08T11:09:05.573Z,25.30
2017-11-08T11:11:33.001Z,22.90
2017-11-08T11:14:16.089Z,26.17
2017-11-08T11:16:43.612Z,23.07
2017-11-08T11:19:12.827Z,26.27
2017-11-08T11:21:40.369Z,22.27
2017-11-08T11:24:12.705Z,21.20
2017-11-08T11:26:42.045Z,21.13
2017-11-08T11:29:10.157Z,19.43
2017-11-08T11:31:37.877Z,19.87
2017-11-08T11:34:05.330Z,23.33
2017-11-08T11:36:32.786Z,22.37
2017-11-08T11:39:00.245Z,22.30
2017-11-08T11:41:28.498Z,21.53
2017-11-08T11:43:56.086Z,25.90
2017-11-08T11:46:23.514Z,21.77
2017-11-08T11:48:53.757Z,22.07
2017-11-08T11:51:25.993Z,21.03
2017-11-08T11:53:54.189Z,24.77
2017-11-08T11:56:21.661Z,23.60
2017-11-08T11:58:49.121Z,20.50
2017-11-08T12:01:16.541Z,24.00
2017-11-08T12:03:43.966Z,24.50
2017-11-08T12:06:12.415Z,23.60
2017-11-08T12:08:39.866Z,19.60
2017-11-08T12:11:07.300Z,22.43
2017-11-08T12:13:34.720Z,22.80
2017-11-08T12:16:02.256Z,25.00
2017-11-08T12:18:29.691Z,23.70
2017-11-08T12:20:57.157Z,25.67
2017-11-08T12:23:24.609Z,23.27
2017-11-08T12:25:52.041Z,19.70
2017-11-08T12:28:19.465Z,22.10
2017-11-08T12:30:46.979Z,21.73
2017-11-08T12:33:14.436Z,23.77
2017-11-08T12:35:41.895Z,18.80
2017-11-08T12:38:09.313Z,22.07
2017-11-08T12:40:36.806Z,23.57
2017-11-08T12:43:04.229Z,24.43
2017-11-08T12:45:31.664Z,22.57
2017-11-08T12:47:59.865Z,23.30
2017-11-08T12:50:28.070Z,30.37
2017-11-08T12:52:55.601Z,22.10
2017-11-08T12:55:23.033Z,26.23
2017-11-08T12:57:50.533Z,21.67
2017-11-08T13:00:18.610Z,26.00
2017-11-08T13:02:46.992Z,24.63
2017-11-08T13:05:14.416Z,25.17
2017-11-08T13:07:41.901Z,27.07
2017-11-08T13:10:09.357Z,23.40
2017-11-08T13:12:36.789Z,26.00
2017-11-08T13:15:04.986Z,21.43
2017-11-08T13:17:32.423Z,24.30
2017-11-08T13:19:59.845Z,21.97
2017-11-08T13:22:27.276Z,23.67
2017-11-08T13:24:54.721Z,20.43
2017-11-08T13:27:22.163Z,22.73
2017-11-08T13:29:49.596Z,19.93
2017-11-08T13:32:17.033Z,25.03
2017-11-08T13:34:44.537Z,21.97
2017-11-08T13:37:11.989Z,25.13
2017-11-08T13:39:39.454Z,24.27
2017-11-08T13:42:08.797Z,23.83
2017-11-08T13:44:36.229Z,21.93
2017-11-08T13:47:03.661Z,22.20
2017-11-08T13:49:31.115Z,23.07
2017-11-08T13:51:58.540Z,22.30
2017-11-08T13:54:25.977Z,22.07
2017-11-08T13:56:53.489Z,25.87
2017-11-08T13:59:20.928Z,22.03
2017-11-08T14:01:48.401Z,26.23
2017-11-08T14:04:17.749Z,25.20
2017-11-08T14:06:45.176Z,23.80
2017-11-08T14:09:12.793Z,28.13
2017-11-08T14:11:40.314Z,26.07
2017-11-08T14:14:07.753Z,26.23
2017-11-08T14:16:35.181Z,23.07
2017-11-08T14:19:02.613Z,22.37
2017-11-08T14:21:30.046Z,21.67
2017-11-08T14:23:57.469Z,21.33
2017-11-08T14:26:24.906Z,23.87
2017-11-08T14:28:52.573Z,19.93
2017-11-08T14:31:20.009Z,21.60
2017-11-08T14:33:48.569Z,25.90
2017-11-08T14:36:16.781Z,24.67
2017-11-08T14:38:44.210Z,26.03
2017-11-08T14:41:11.695Z,22.90
2017-11-08T14:43:39.156Z,24.13
2017-11-08T14:46:06.585Z,25.87
2017-11-08T14:48:34.089Z,27.47
2017-11-08T14:51:01.497Z,26.80
2017-11-08T14:53:29.698Z,21.03
2017-11-08T14:55:57.256Z,25.23
2017-11-08T14:58:24.692Z,23.20
2017-11-08T15:00:52.212Z,25.23
2017-11-08T15:03:19.625Z,27.07
2017-11-08T15:05:47.046Z,25.23
2017-11-08T15:08:15.255Z,23.63
2017-11-08T15:10:42.732Z,23.20
2017-11-08T15:13:10.190Z,22.30
2017-11-08T15:15:37.933Z,23.90
2017-11-08T15:18:05.702Z,23.47
2017-11-08T15:20:33.121Z,25.80
2017-11-08T15:23:00.558Z,24.13
2017-11-08T15:25:28.264Z,21.50
2017-11-08T15:27:55.689Z,24.40
2017-11-08T15:30:27.820Z,26.70
2017-11-08T15:32:55.267Z,26.13
2017-11-08T15:35:22.716Z,22.20
2017-11-08T15:37:50.165Z,21.70
2017-11-08T15:40:20.401Z,20.70
2017-11-08T15:42:47.910Z,21.13
2017-11-08T15:45:15.397Z,24.20
2017-11-08T15:47:42.854Z,21.73
2017-11-08T15:50:10.309Z,22.50
2017-11-08T15:52:37.743Z,29.40
2017-11-08T15:55:08.010Z,32.83
2017-11-08T15:57:35.441Z,30.53
2017-11-08T16:00:02.926Z,25.57
2017-11-08T16:02:30.336Z,24.53
2017-11-08T16:04:57.777Z,28.47
2017-11-08T16:07:25.198Z,25.77
2017-11-08T16:09:52.639Z,35.20
2017-11-08T16:12:20.121Z,26.97
2017-11-08T16:14:47.945Z,31.77
2017-11-08T16:17:15.386Z,26.97
2017-11-08T16:19:42.808Z,30.70
2017-11-08T16:22:10.237Z,29.23
2017-11-08T16:24:37.669Z,26.67
2017-11-08T16:27:05.221Z,26.00
2017-11-08T16:29:32.650Z,29.00
2017-11-08T16:32:00.093Z,24.23
2017-11-08T16:34:27.600Z,27.20
2017-11-08T16:36:55.049Z,31.23
2017-11-08T16:39:22.465Z,25.67
2017-11-08T16:41:50.661Z,28.10
2017-11-08T16:44:18.084Z,25.83
2017-11-08T16:46:45.613Z,31.37
2017-11-08T16:49:13.047Z,36.87
2017-11-08T16:51:40.634Z,35.33
2017-11-08T16:54:08.179Z,33.87
2017-11-08T16:56:35.592Z,31.13
2017-11-08T16:59:03.021Z,35.20
2017-11-08T17:01:30.530Z,30.27
2017-11-08T17:03:57.987Z,31.03
2017-11-08T17:06:25.443Z,30.07
2017-11-08T17:08:52.876Z,31.40
2017-11-08T17:11:20.304Z,27.70
2017-11-08T17:13:47.741Z,30.83
2017-11-08T17:16:15.163Z,30.07
2017-11-08T17:18:42.608Z,29.87
2017-11-08T17:21:10.089Z,26.70
2017-11-08T17:23:37.654Z,28.93
2017-11-08T17:26:05.066Z,26.10
2017-11-08T17:28:32.553Z,27.07
2017-11-08T17:30:59.975Z,24.50
2017-11-08T17:33:27.462Z,25.93
2017-11-08T17:35:54.918Z,24.33
2017-11-08T17:38:22.345Z,24.23
2017-11-08T17:40:49.778Z,28.27
2017-11-08T17:43:17.286Z,24.30
2017-11-08T17:45:44.717Z,26.20
2017-11-08T17:48:12.145Z,28.10
2017-11-08T17:50:39.579Z,24.73
2017-11-08T17:53:07.118Z,24.37
2017-11-08T17:55:34.880Z,28.63
2017-11-08T17:58:02.305Z,29.67
2017-11-08T18:00:29.738Z,29.70
2017-11-08T18:02:57.169Z,28.23
2017-11-08T18:05:24.597Z,30.10
2017-11-08T18:07:52.028Z,30.73
2017-11-08T18:10:19.472Z,26.73
2017-11-08T18:12:47.665Z,34.50
2017-11-08T18:15:15.089Z,31.03
2017-11-08T18:17:42.521Z,27.40
2017-11-08T18:20:09.953Z,23.40
2017-11-08T18:22:37.403Z,22.93
2017-11-08T18:25:04.865Z,29.37
2017-11-08T18:27:32.310Z,30.97
2017-11-08T18:29:59.785Z,28.03
2017-11-08T18:32:27.333Z,28.80
2017-11-08T18:34:54.762Z,26.90
2017-11-08T18:37:22.201Z,29.93
2017-11-08T18:39:49.702Z,28.60
2017-11-08T18:42:17.141Z,29.40
2017-11-08T18:44:44.617Z,28.17
2017-11-08T18:47:12.053Z,33.10
2017-11-08T18:49:39.478Z,34.87
2017-11-08T18:52:06.905Z,30.10
2017-11-08T18:54:34.329Z,27.87
2017-11-08T18:57:01.777Z,29.83
2017-11-08T18:59:29.256Z,27.00
2017-11-08T19:01:56.681Z,29.03
2017-11-08T19:04:24.262Z,31.73
2017-11-08T19:06:51.729Z,27.70
2017-11-08T19:09:19.169Z,29.67
2017-11-08T19:11:47.429Z,29.77
2017-11-08T19:14:15.018Z,27.80
2017-11-08T19:16:42.452Z,28.47
2017-11-08T19:19:09.882Z,28.77
2017-11-08T19:21:37.312Z,33.23
2017-11-08T19:24:04.835Z,31.30
2017-11-08T19:26:32.254Z,26.83
2017-11-08T19:28:59.691Z,27.40
2017-11-08T19:31:27.181Z,32.27
2017-11-08T19:33:54.664Z,27.07
2017-11-08T19:36:22.094Z,29.10
2017-11-08T19:38:49.540Z,29.30
2017-11-08T19:41:16.960Z,34.43
2017-11-08T19:43:44.418Z,32.47
2017-11-08T19:46:11.820Z,29.73
2017-11-08T19:48:39.401Z,35.20
2017-11-08T19:51:06.857Z,28.53
2017-11-08T19:53:34.319Z,29.37
2017-11-08T19:56:01.801Z,26.90
2017-11-08T19:58:29.226Z,27.23
2017-11-08T20:00:56.680Z,32.83
2017-11-08T20:03:24.104Z,27.47
2017-11-08T20:05:51.545Z,28.47
2017-11-08T20:08:18.971Z,32.17
2017-11-08T20:10:46.417Z,29.53
2017-11-08T20:13:13.861Z,26.70
2017-11-08T20:15:41.404Z,35.40
2017-11-08T20:18:08.877Z,33.77
2017-11-08T20:20:36.841Z,24.30
2017-11-08T20:23:04.276Z,29.70
2017-11-08T20:25:31.861Z,29.47
2017-11-08T20:27:59.329Z,30.23
2017-11-08T20:30:26.954Z,36.97
2017-11-08T20:32:54.445Z,35.00
2017-11-08T20:35:21.893Z,36.47
2017-11-08T20:37:49.465Z,33.60
2017-11-08T20:40:17.083Z,33.93
2017-11-08T20:42:44.545Z,34.37
2017-11-08T20:45:11.973Z,33.07
2017-11-08T20:47:40.205Z,31.57
2017-11-08T20:50:07.830Z,31.13
2017-11-08T20:52:35.413Z,36.93
2017-11-08T20:55:02.832Z,34.83
2017-11-08T20:57:30.326Z,33.03
2017-11-08T20:59:57.749Z,31.97
2017-11-08T21:02:25.240Z,35.67
2017-11-08T21:04:52.674Z,36.70
2017-11-08T21:07:20.151Z,34.13
2017-11-08T21:09:47.608Z,42.20
2017-11-08T21:12:15.040Z,47.57
2017-11-08T21:14:42.524Z,43.33
2017-11-08T21:17:09.977Z,39.80
2017-11-08T21:19:37.433Z,31.93
2017-11-08T21:22:04.861Z,36.73
2017-11-08T21:24:32.349Z,40.73
2017-11-08T21:26:59.780Z,37.77
2017-11-08T21:29:27.265Z,34.67
2017-11-08T21:31:54.677Z,35.67
2017-11-08T21:34:22.173Z,34.87
2017-11-08T21:36:49.593Z,31.97
2017-11-08T21:39:17.037Z,33.10
2017-11-08T21:41:44.461Z,28.87
2017-11-08T21:44:11.998Z,26.37
2017-11-08T21:46:39.539Z,28.50
2017-11-08T21:49:07.219Z,33.90
2017-11-08T21:51:34.664Z,27.77
2017-11-08T21:54:02.137Z,24.53
2017-11-08T21:56:29.892Z,30.07
2017-11-08T21:58:57.313Z,28.40
2017-11-08T22:01:24.797Z,32.20
2017-11-08T22:03:52.220Z,32.87
2017-11-08T22:06:19.717Z,33.00
2017-11-08T22:08:47.141Z,30.07
2017-11-08T22:11:14.589Z,28.40
2017-11-08T22:13:42.019Z,26.73
2017-11-08T22:16:09.540Z,26.53
2017-11-08T22:18:36.971Z,24.63
2017-11-08T22:21:06.293Z,22.90
2017-11-08T22:23:33.729Z,22.27
2017-11-08T22:26:01.234Z,28.93
2017-11-08T22:28:28.662Z,33.90
2017-11-08T22:30:56.119Z,32.93
2017-11-08T22:33:23.549Z,35.10
2017-11-08T22:35:51.033Z,29.63
2017-11-08T22:38:18.465Z,32.60
2017-11-08T22:40:45.889Z,29.07
2017-11-08T22:43:13.405Z,28.73
2017-11-08T22:45:40.826Z,29.33
2017-11-08T22:48:08.317Z,28.03
2017-11-08T22:50:35.773Z,24.80
2017-11-08T22:53:03.221Z,27.20
2017-11-08T22:55:30.654Z,23.03
2017-11-08T22:57:58.080Z,25.33
2017-11-08T23:00:25.505Z,21.10
2017-11-08T23:02:52.966Z,24.90
2017-11-08T23:05:20.417Z,27.23
2017-11-08T23:07:47.865Z,28.33
2017-11-08T23:10:15.357Z,30.53
2017-11-08T23:12:42.877Z,22.20
2017-11-08T23:15:10.316Z,24.83
2017-11-08T23:17:37.732Z,30.03
2017-11-08T23:20:05.166Z,27.13
2017-11-08T23:22:32.605Z,29.57
2017-11-08T23:25:00.164Z,22.73
2017-11-08T23:27:27.789Z,20.13
2017-11-08T23:29:55.275Z,20.53
2017-11-08T23:32:22.697Z,20.07
2017-11-08T23:34:51.209Z,22.40
2017-11-08T23:37:18.637Z,18.43
2017-11-08T23:39:46.433Z,20.70
2017-11-08T23:42:13.892Z,19.60
2017-11-08T23:44:41.307Z,19.07
2017-11-08T23:47:08.806Z,20.93
2017-11-08T23:49:36.562Z,19.10
2017-11-08T23:52:04.018Z,21.07
2017-11-08T23:54:34.340Z,18.00
2017-11-08T23:57:01.880Z,16.77
2017-11-08T23:59:29.463Z,18.50
